createdAt,value
2022-11-10T00:00:01.132Z,100.00
2022-11-10T00:02:48.094Z,100.00
2022-11-10T00:05:34.888Z,100.00
2022-11-10T00:08:21.453Z,100.00
2022-11-10T00:11:08.730Z,100.00
2022-11-10T00:14:14.014Z,100.00
2022-11-10T00:17:04.687Z,100.00
2022-11-10T00:19:51.632Z,100.00
2022-11-10T00:22:39.427Z,100.00
2022-11-10T00:25:27.820Z,100.00
2022-11-10T00:28:14.329Z,100.00
2022-11-10T00:31:06.914Z,100.00
2022-11-10T00:33:53.187Z,100.00
2022-11-10T00:36:40.106Z,100.00
2022-11-10T00:39:27.099Z,100.00
2022-11-10T00:42:13.762Z,100.00
2022-11-10T00:45:00.131Z,100.00
2022-11-10T00:47:48.322Z,100.00
2022-11-10T00:50:34.801Z,100.00
2022-11-10T00:53:21.535Z,100.00
2022-11-10T00:56:08.150Z,100.00
2022-11-10T00:58:54.512Z,100.00
2022-11-10T01:01:41.037Z,100.00
2022-11-10T01:04:28.682Z,100.00
2022-11-10T01:07:15.028Z,100.00
2022-11-10T01:10:01.772Z,100.00
2022-11-10T01:12:48.377Z,100.00
2022-11-10T01:15:34.993Z,100.00
2022-11-10T01:18:21.220Z,100.00
2022-11-10T01:21:09.248Z,100.00
2022-11-10T01:23:56.075Z,100.00
2022-11-10T01:26:42.454Z,100.00
2022-11-10T01:29:28.766Z,100.00
2022-11-10T01:32:15.069Z,100.00
2022-11-10T01:35:01.494Z,100.00
2022-11-10T01:37:49.379Z,100.00
2022-11-10T01:40:36.075Z,100.00
2022-11-10T01:43:23.056Z,100.00
2022-11-10T01:46:11.094Z,100.00
2022-11-10T01:49:01.710Z,100.00
2022-11-10T01:51:51.933Z,100.00
2022-11-10T01:54:41.915Z,100.00
2022-11-10T01:57:28.250Z,100.00
2022-11-10T02:00:15.281Z,100.00
2022-11-10T02:03:06.877Z,100.00
2022-11-10T02:05:53.169Z,100.00
2022-11-10T02:08:39.765Z,100.00
2022-11-10T02:11:28.492Z,100.00
2022-11-10T02:14:16.748Z,100.00
2022-11-10T02:17:03.072Z,100.00
2022-11-10T02:19:49.574Z,100.00
2022-11-10T02:22:38.055Z,100.00
2022-11-10T02:25:26.485Z,100.00
2022-11-10T02:28:13.096Z,100.00
2022-11-10T02:30:59.368Z,100.00
2022-11-10T02:33:46.034Z,100.00
2022-11-10T02:36:32.685Z,100.00
2022-11-10T02:39:20.605Z,100.00
2022-11-10T02:42:10.329Z,100.00
2022-11-10T02:44:57.750Z,100.00
2022-11-10T02:47:44.230Z,100.00
2022-11-10T02:50:30.571Z,100.00
2022-11-10T02:53:17.001Z,100.00
2022-11-10T02:56:04.695Z,100.00
2022-11-10T02:58:51.019Z,100.00
2022-11-10T03:01:37.651Z,100.00
2022-11-10T03:04:23.974Z,100.00
2022-11-10T03:07:10.173Z,100.00
2022-11-10T03:09:57.058Z,100.00
2022-11-10T03:12:44.961Z,100.00
2022-11-10T03:15:31.718Z,100.00
2022-11-10T03:18:18.510Z,100.00
2022-11-10T03:21:05.133Z,100.00
2022-11-10T03:23:51.407Z,100.00
2022-11-10T03:26:37.593Z,100.00
2022-11-10T03:29:25.093Z,100.00
2022-11-10T03:32:11.184Z,100.00
2022-11-10T03:34:57.451Z,100.00
2022-11-10T03:37:44.690Z,100.00
2022-11-10T03:40:31.147Z,100.00
2022-11-10T03:43:17.476Z,100.00
2022-11-10T03:46:05.211Z,100.00
2022-11-10T03:48:53.684Z,100.00
2022-11-10T03:51:40.639Z,100.00
2022-11-10T03:54:27.282Z,100.00
2022-11-10T03:57:13.543Z,100.00
2022-11-10T03:59:59.694Z,100.00
2022-11-10T04:02:47.883Z,100.00
2022-11-10T04:05:52.151Z,100.00
2022-11-10T04:08:56.135Z,100.00
2022-11-10T04:12:00.121Z,100.00
2022-11-10T04:15:08.928Z,100.00
2022-11-10T04:18:18.747Z,100.00
2022-11-10T04:21:05.508Z,100.00
2022-11-10T04:23:51.791Z,100.00
2022-11-10T04:26:38.887Z,100.00
2022-11-10T04:29:25.460Z,100.00
2022-11-10T04:32:12.381Z,100.00
2022-11-10T04:35:00.392Z,100.00
2022-11-10T04:37:47.539Z,100.00
2022-11-10T04:40:33.714Z,100.00
2022-11-10T04:43:20.446Z,100.00
2022-11-10T04:46:08.876Z,100.00
2022-11-10T04:48:56.235Z,100.00
2022-11-10T04:51:44.157Z,100.00
2022-11-10T04:54:30.908Z,100.00
2022-11-10T04:57:17.249Z,100.00
2022-11-10T05:00:04.812Z,100.00
2022-11-10T05:02:51.040Z,100.00
2022-11-10T05:05:37.320Z,100.00
2022-11-10T05:08:25.229Z,100.00
2022-11-10T05:11:13.062Z,100.00
2022-11-10T05:13:59.843Z,100.00
2022-11-10T05:16:46.750Z,100.00
2022-11-10T05:19:33.267Z,100.00
2022-11-10T05:22:19.578Z,100.00
2022-11-10T05:25:08.486Z,100.00
2022-11-10T05:27:54.637Z,100.00
2022-11-10T05:30:41.178Z,100.00
2022-11-10T05:33:27.672Z,100.00
2022-11-10T05:36:14.333Z,100.00
2022-11-10T05:39:00.732Z,100.00
2022-11-10T05:41:48.835Z,100.00
2022-11-10T05:44:35.570Z,100.00
2022-11-10T05:47:21.768Z,100.00
2022-11-10T05:50:09.786Z,100.00
2022-11-10T05:52:56.793Z,100.00
2022-11-10T05:55:43.571Z,100.00
2022-11-10T05:58:31.092Z,100.00
2022-11-10T06:01:17.369Z,100.00
2022-11-10T06:04:06.680Z,100.00
2022-11-10T06:06:52.935Z,100.00
2022-11-10T06:09:39.298Z,100.00
2022-11-10T06:12:30.127Z,100.00
2022-11-10T06:15:18.077Z,100.00
2022-11-10T06:18:04.804Z,100.00
2022-11-10T06:20:51.348Z,100.00
2022-11-10T06:23:37.953Z,100.00
2022-11-10T06:26:24.555Z,100.00
2022-11-10T06:29:10.821Z,100.00
2022-11-10T06:31:58.815Z,100.00
2022-11-10T06:34:45.093Z,100.00
2022-11-10T06:37:31.366Z,100.00
2022-11-10T06:40:17.897Z,100.00
2022-11-10T06:43:04.382Z,100.00
2022-11-10T06:45:50.711Z,100.00
2022-11-10T06:48:38.395Z,100.00
2022-11-10T06:51:24.635Z,100.00
2022-11-10T06:54:11.281Z,100.00
2022-11-10T06:56:57.624Z,100.00
2022-11-10T06:59:44.174Z,100.00
2022-11-10T07:02:30.410Z,100.00
2022-11-10T07:05:18.371Z,100.00
2022-11-10T07:08:05.484Z,100.00
2022-11-10T07:10:53.945Z,100.00
2022-11-10T07:13:40.540Z,100.00
2022-11-10T07:16:26.938Z,100.00
2022-11-10T07:19:13.659Z,100.00
2022-11-10T07:22:02.659Z,100.00
2022-11-10T07:24:51.020Z,100.00
2022-11-10T07:27:37.413Z,100.00
2022-11-10T07:30:23.955Z,100.00
2022-11-10T07:33:13.152Z,100.00
2022-11-10T07:36:03.315Z,100.00
2022-11-10T07:38:51.247Z,100.00
2022-11-10T07:41:37.440Z,100.00
2022-11-10T07:44:23.654Z,100.00
2022-11-10T07:47:09.749Z,100.00
2022-11-10T07:49:56.366Z,100.00
2022-11-10T07:52:42.900Z,100.00
2022-11-10T07:55:30.671Z,100.00
2022-11-10T07:58:20.757Z,100.00
2022-11-10T08:01:07.301Z,100.00
2022-11-10T08:03:53.812Z,100.00
2022-11-10T08:06:40.255Z,100.00
2022-11-10T08:09:26.813Z,100.00
2022-11-10T08:12:14.410Z,100.00
2022-11-10T08:15:00.760Z,100.00
2022-11-10T08:17:47.629Z,100.00
2022-11-10T08:20:34.352Z,100.00
2022-11-10T08:23:21.165Z,100.00
2022-11-10T08:26:08.055Z,100.00
2022-11-10T08:28:56.168Z,100.00
2022-11-10T08:31:42.772Z,100.00
2022-11-10T08:34:29.403Z,100.00
2022-11-10T08:37:15.736Z,100.00
2022-11-10T08:40:01.943Z,100.00
2022-11-10T08:42:48.826Z,100.00
2022-11-10T08:45:37.400Z,100.00
2022-11-10T08:48:24.138Z,100.00
2022-11-10T08:51:10.549Z,100.00
2022-11-10T08:53:56.971Z,100.00
2022-11-10T08:56:43.703Z,100.00
2022-11-10T08:59:29.905Z,100.00
2022-11-10T09:02:17.566Z,100.00
2022-11-10T09:05:04.256Z,100.00
2022-11-10T09:07:51.491Z,100.00
2022-11-10T09:10:40.571Z,100.00
2022-11-10T09:13:30.335Z,100.00
2022-11-10T09:16:17.529Z,100.00
2022-11-10T09:19:05.025Z,100.00
2022-11-10T09:21:51.613Z,100.00
2022-11-10T09:24:38.345Z,100.00
2022-11-10T09:27:24.893Z,100.00
2022-11-10T09:30:17.407Z,100.00
2022-11-10T09:33:04.383Z,100.00
2022-11-10T09:35:52.485Z,100.00
2022-11-10T09:38:39.325Z,100.00
2022-11-10T09:41:29.824Z,100.00
2022-11-10T09:44:20.412Z,99.82
2022-11-10T09:47:19.078Z,100.00
2022-11-10T09:50:22.532Z,100.00
2022-11-10T09:53:16.281Z,99.34
2022-11-10T09:56:05.097Z,99.66
2022-11-10T09:58:51.964Z,99.95
2022-11-10T10:01:46.636Z,99.21
2022-11-10T10:04:53.145Z,98.46
2022-11-10T10:07:47.883Z,98.08
2022-11-10T10:10:40.496Z,98.32
2022-11-10T10:13:48.105Z,100.00
2022-11-10T10:16:41.281Z,100.00
2022-11-10T10:19:36.506Z,100.00
2022-11-10T10:22:50.634Z,100.00
2022-11-10T10:25:40.683Z,99.18
2022-11-10T10:28:33.162Z,98.08
2022-11-10T10:31:21.822Z,96.64
2022-11-10T10:34:13.832Z,95.65
2022-11-10T10:37:00.407Z,96.20
2022-11-10T10:39:50.054Z,96.45
2022-11-10T10:42:38.957Z,96.28
2022-11-10T10:45:27.369Z,95.49
2022-11-10T10:48:27.853Z,95.36
2022-11-10T10:51:29.817Z,93.45
2022-11-10T10:54:29.234Z,92.37
2022-11-10T10:57:28.183Z,90.80
2022-11-10T11:00:22.150Z,90.20
2022-11-10T11:03:15.566Z,89.60
2022-11-10T11:06:07.524Z,88.90
2022-11-10T11:09:02.448Z,87.76
2022-11-10T11:12:01.777Z,86.45
2022-11-10T11:14:48.171Z,86.22
2022-11-10T11:17:36.528Z,84.76
2022-11-10T11:20:32.339Z,84.23
2022-11-10T11:23:36.289Z,84.80
2022-11-10T11:26:29.455Z,84.20
2022-11-10T11:29:32.555Z,85.65
2022-11-10T11:32:28.506Z,84.69
2022-11-10T11:35:25.649Z,85.76
2022-11-10T11:38:15.134Z,83.29
2022-11-10T11:41:17.757Z,83.42
2022-11-10T11:44:20.340Z,83.09
2022-11-10T11:47:21.993Z,83.68
2022-11-10T11:50:24.816Z,83.89
2022-11-10T11:53:24.384Z,85.10
2022-11-10T11:56:23.388Z,84.51
2022-11-10T11:59:23.013Z,83.47
2022-11-10T12:02:36.769Z,83.46
2022-11-10T12:05:37.177Z,83.01
2022-11-10T12:08:33.934Z,83.89
2022-11-10T12:11:29.324Z,83.60
2022-11-10T12:14:22.117Z,83.79
2022-11-10T12:17:13.745Z,82.70
2022-11-10T12:20:07.163Z,81.50
2022-11-10T12:23:03.176Z,83.32
2022-11-10T12:26:00.597Z,84.05
2022-11-10T12:28:52.629Z,82.33
2022-11-10T12:31:40.231Z,82.12
2022-11-10T12:34:33.969Z,81.30
2022-11-10T12:37:27.987Z,81.27
2022-11-10T12:40:20.426Z,81.54
2022-11-10T12:43:13.019Z,79.82
2022-11-10T12:46:04.199Z,79.86
2022-11-10T12:49:00.638Z,79.90
2022-11-10T12:51:55.603Z,78.93
2022-11-10T12:54:45.917Z,82.80
2022-11-10T12:57:34.206Z,81.79
2022-11-10T13:00:28.516Z,81.12
2022-11-10T13:03:25.646Z,80.30
2022-11-10T13:06:27.021Z,80.01
2022-11-10T13:09:24.733Z,81.61
2022-11-10T13:12:20.138Z,80.25
2022-11-10T13:15:40.144Z,79.53
2022-11-10T13:19:01.160Z,80.00
2022-11-10T13:22:07.127Z,80.66
2022-11-10T13:24:53.376Z,80.36
2022-11-10T13:27:53.216Z,79.04
2022-11-10T13:30:45.974Z,78.57
2022-11-10T13:33:36.879Z,79.83
2022-11-10T13:36:40.149Z,79.56
2022-11-10T13:39:29.110Z,79.71
2022-11-10T13:42:20.384Z,79.04
2022-11-10T13:45:29.068Z,80.64
2022-11-10T13:48:27.561Z,80.35
2022-11-10T13:51:27.114Z,78.43
2022-11-10T13:54:34.358Z,78.90
2022-11-10T13:57:30.685Z,80.05
2022-11-10T14:00:26.892Z,79.73
2022-11-10T14:04:00.377Z,79.84
2022-11-10T14:06:51.247Z,80.87
2022-11-10T14:09:41.804Z,80.86
2022-11-10T14:12:31.807Z,80.04
2022-11-10T14:15:20.201Z,80.05
2022-11-10T14:18:19.249Z,80.74
2022-11-10T14:21:06.720Z,81.46
2022-11-10T14:23:57.455Z,81.28
2022-11-10T14:26:50.625Z,81.76
2022-11-10T14:29:39.914Z,82.19
2022-11-10T14:32:27.028Z,83.24
2022-11-10T14:35:23.097Z,82.86
2022-11-10T14:38:20.894Z,84.06
2022-11-10T14:41:15.064Z,84.10
2022-11-10T14:44:04.338Z,85.41
2022-11-10T14:46:50.579Z,85.08
2022-11-10T14:49:36.857Z,85.23
2022-11-10T14:52:23.329Z,84.14
2022-11-10T14:55:14.520Z,84.58
2022-11-10T14:58:05.172Z,84.49
2022-11-10T15:00:54.241Z,84.91
2022-11-10T15:03:42.922Z,84.77
2022-11-10T15:06:46.812Z,85.43
2022-11-10T15:09:34.627Z,86.96
2022-11-10T15:12:24.646Z,87.97
2022-11-10T15:15:22.953Z,87.88
2022-11-10T15:18:29.146Z,89.13
2022-11-10T15:21:17.845Z,89.89
2022-11-10T15:24:06.916Z,89.35
2022-11-10T15:26:53.386Z,89.50
2022-11-10T15:29:39.813Z,89.53
2022-11-10T15:32:35.187Z,89.83
2022-11-10T15:35:31.865Z,88.89
2022-11-10T15:38:28.101Z,90.15
2022-11-10T15:41:26.822Z,90.83
2022-11-10T15:44:19.005Z,90.43
2022-11-10T15:47:06.832Z,90.94
2022-11-10T15:49:52.906Z,90.64
2022-11-10T15:52:40.659Z,90.26
2022-11-10T15:55:27.620Z,89.91
2022-11-10T15:58:19.404Z,90.73
2022-11-10T16:01:06.040Z,91.93
2022-11-10T16:03:52.513Z,91.48
2022-11-10T16:06:40.056Z,91.66
2022-11-10T16:09:27.600Z,92.39
2022-11-10T16:12:17.459Z,93.86
2022-11-10T16:15:04.483Z,94.14
2022-11-10T16:17:51.340Z,95.03
2022-11-10T16:20:37.915Z,95.99
2022-11-10T16:23:25.652Z,96.07
2022-11-10T16:26:16.117Z,95.99
2022-11-10T16:29:02.866Z,95.99
2022-11-10T16:31:50.372Z,96.71
2022-11-10T16:34:36.662Z,96.77
2022-11-10T16:37:23.285Z,96.55
2022-11-10T16:40:15.595Z,96.62
2022-11-10T16:43:03.031Z,96.45
2022-11-10T16:45:51.072Z,97.80
2022-11-10T16:48:37.697Z,97.34
2022-11-10T16:51:30.423Z,96.81
2022-11-10T16:54:17.259Z,97.28
2022-11-10T16:57:03.312Z,96.51
2022-11-10T16:59:51.021Z,97.13
2022-11-10T17:02:39.763Z,97.32
2022-11-10T17:05:25.939Z,97.97
2022-11-10T17:08:22.130Z,97.82
2022-11-10T17:11:10.136Z,96.95
2022-11-10T17:13:56.764Z,98.40
2022-11-10T17:16:46.529Z,98.94
2022-11-10T17:19:32.997Z,99.97
2022-11-10T17:22:44.265Z,99.60
2022-11-10T17:25:33.135Z,98.88
2022-11-10T17:28:20.089Z,100.00
2022-11-10T17:31:06.793Z,100.00
2022-11-10T17:33:55.230Z,100.00
2022-11-10T17:36:41.897Z,100.00
2022-11-10T17:39:28.208Z,100.00
2022-11-10T17:42:15.182Z,100.00
2022-11-10T17:45:01.896Z,100.00
2022-11-10T17:47:49.060Z,100.00
2022-11-10T17:50:39.295Z,100.00
2022-11-10T17:53:28.157Z,100.00
2022-11-10T17:56:15.117Z,100.00
2022-11-10T17:59:01.466Z,100.00
2022-11-10T18:01:48.461Z,100.00
2022-11-10T18:04:34.620Z,100.00
2022-11-10T18:07:22.312Z,100.00
2022-11-10T18:10:12.573Z,100.00
2022-11-10T18:12:59.035Z,100.00
2022-11-10T18:15:46.858Z,100.00
2022-11-10T18:18:33.558Z,100.00
2022-11-10T18:21:19.836Z,100.00
2022-11-10T18:24:07.647Z,100.00
2022-11-10T18:26:54.248Z,100.00
2022-11-10T18:29:40.842Z,100.00
2022-11-10T18:32:27.113Z,100.00
2022-11-10T18:35:13.345Z,100.00
2022-11-10T18:37:59.708Z,100.00
2022-11-10T18:40:47.649Z,100.00
2022-11-10T18:43:33.835Z,100.00
2022-11-10T18:46:20.276Z,100.00
2022-11-10T18:49:06.641Z,100.00
2022-11-10T18:51:53.159Z,100.00
2022-11-10T18:54:39.449Z,100.00
2022-11-10T18:57:27.753Z,100.00
2022-11-10T19:00:14.941Z,100.00
2022-11-10T19:03:01.291Z,100.00
2022-11-10T19:05:55.632Z,100.00
2022-11-10T19:08:45.296Z,100.00
2022-11-10T19:11:32.662Z,100.00
2022-11-10T19:14:20.632Z,100.00
2022-11-10T19:17:06.843Z,100.00
2022-11-10T19:19:56.488Z,100.00
2022-11-10T19:22:43.392Z,100.00
2022-11-10T19:25:29.684Z,100.00
2022-11-10T19:28:15.873Z,100.00
2022-11-10T19:31:05.483Z,100.00
2022-11-10T19:33:53.686Z,100.00
2022-11-10T19:36:40.486Z,100.00
2022-11-10T19:39:26.796Z,100.00
2022-11-10T19:42:13.164Z,100.00
2022-11-10T19:45:00.489Z,100.00
2022-11-10T19:47:48.088Z,100.00
2022-11-10T19:50:34.427Z,100.00
2022-11-10T19:53:21.031Z,100.00
2022-11-10T19:56:11.578Z,100.00
2022-11-10T19:58:58.492Z,100.00
2022-11-10T20:01:44.648Z,100.00
2022-11-10T20:04:32.789Z,100.00
2022-11-10T20:07:36.957Z,100.00
2022-11-10T20:10:23.788Z,100.00
2022-11-10T20:13:12.158Z,100.00
2022-11-10T20:15:58.704Z,100.00
2022-11-10T20:18:45.392Z,100.00
2022-11-10T20:21:33.563Z,100.00
2022-11-10T20:24:19.910Z,100.00
2022-11-10T20:27:06.204Z,100.00
2022-11-10T20:29:53.225Z,100.00
2022-11-10T20:32:39.496Z,100.00
2022-11-10T20:35:25.802Z,100.00
2022-11-10T20:38:13.312Z,100.00
2022-11-10T20:41:03.945Z,100.00
2022-11-10T20:43:50.846Z,100.00
2022-11-10T20:46:54.045Z,100.00
2022-11-10T20:49:41.186Z,100.00
2022-11-10T20:52:27.851Z,100.00
2022-11-10T20:55:18.464Z,100.00
2022-11-10T20:58:04.872Z,100.00
2022-11-10T21:00:51.353Z,100.00
2022-11-10T21:03:38.581Z,100.00
2022-11-10T21:06:25.223Z,100.00
2022-11-10T21:09:12.107Z,100.00
2022-11-10T21:12:17.895Z,100.00
2022-11-10T21:15:04.847Z,100.00
2022-11-10T21:17:51.155Z,100.00
2022-11-10T21:20:37.567Z,100.00
2022-11-10T21:23:24.619Z,100.00
2022-11-10T21:26:11.089Z,100.00
2022-11-10T21:28:59.625Z,100.00
2022-11-10T21:31:46.120Z,100.00
2022-11-10T21:34:32.858Z,100.00
2022-11-10T21:37:19.535Z,100.00
2022-11-10T21:40:06.911Z,100.00
2022-11-10T21:42:56.127Z,100.00
2022-11-10T21:45:43.965Z,100.00
2022-11-10T21:48:30.389Z,100.00
2022-11-10T21:51:16.613Z,100.00
2022-11-10T21:54:02.867Z,100.00
2022-11-10T21:56:49.302Z,100.00
2022-11-10T21:59:36.493Z,100.00
2022-11-10T22:02:24.211Z,100.00
2022-11-10T22:05:10.402Z,100.00
2022-11-10T22:07:56.948Z,100.00
2022-11-10T22:11:00.940Z,100.00
2022-11-10T22:14:05.659Z,100.00
2022-11-10T22:17:10.081Z,100.00
2022-11-10T22:19:58.073Z,100.00
2022-11-10T22:22:45.249Z,100.00
2022-11-10T22:25:31.740Z,100.00
2022-11-10T22:28:20.571Z,100.00
2022-11-10T22:31:08.557Z,100.00
2022-11-10T22:33:54.823Z,100.00
2022-11-10T22:36:42.717Z,100.00
2022-11-10T22:39:49.414Z,100.00
2022-11-10T22:43:06.778Z,100.00
2022-11-10T22:45:53.291Z,100.00
2022-11-10T22:48:39.832Z,100.00
2022-11-10T22:51:28.084Z,100.00
2022-11-10T22:54:17.391Z,100.00
2022-11-10T22:57:04.727Z,100.00
2022-11-10T22:59:51.064Z,100.00
2022-11-10T23:02:37.808Z,100.00
2022-11-10T23:05:24.056Z,100.00
2022-11-10T23:08:10.560Z,100.00
2022-11-10T23:11:02.859Z,100.00
2022-11-10T23:13:50.714Z,100.00
2022-11-10T23:16:37.280Z,100.00
2022-11-10T23:19:23.548Z,100.00
2022-11-10T23:22:09.950Z,100.00
2022-11-10T23:24:57.457Z,100.00
2022-11-10T23:27:45.571Z,100.00
2022-11-10T23:30:33.763Z,100.00
2022-11-10T23:33:20.364Z,100.00
2022-11-10T23:36:07.921Z,100.00
2022-11-10T23:38:55.868Z,100.00
2022-11-10T23:41:42.271Z,100.00
2022-11-10T23:44:30.126Z,100.00
2022-11-10T23:47:16.709Z,100.00
2022-11-10T23:50:03.147Z,100.00
2022-11-10T23:52:49.366Z,100.00
2022-11-10T23:55:36.143Z,100.00
2022-11-10T23:58:23.041Z,100.00
